Time;durP1;ratioP1;P1;durP2;ratioP2;P2;SDS_P1;SDS_P2;PMS_P1;PMS_P2;Temp;Humidity;BMP_temperature;BMP_pressure;BME280_temperature;BME280_humidity;BME280_pressure;Samples;Min_cycle;Max_cycle;Signal;HPM_P1;HPM_P2
2022/07/12 00:00:42;;;;;;;5.50;1.70;;;;;;;13.54;58.20;99650.41;4344961;33;35879;-88
2022/07/12 00:03:10;;;;;;;2.00;1.40;;;;;;;13.72;57.51;99651.81;4334780;33;34463;-80
2022/07/12 00:05:38;;;;;;;2.85;1.70;;;;;;;14.21;55.71;99646.47;4334652;33;33655;-80
2022/07/12 00:08:06;;;;;;;3.97;1.50;;;;;;;13.88;56.73;99657.63;4349644;33;34772;-81
2022/07/12 00:10:35;;;;;;;2.40;1.62;;;;;;;13.63;57.23;99648.47;4347584;33;34732;-80
2022/07/12 00:13:04;;;;;;;2.40;1.40;;;;;;;13.94;56.31;99650.53;4349333;33;34614;-90
2022/07/12 00:15:32;;;;;;;1.75;1.45;;;;;;;13.18;58.75;99645.75;4343418;33;33092;-83
2022/07/12 00:18:00;;;;;;;1.58;1.40;;;;;;;13.62;57.48;99648.50;4347155;33;34031;-80
2022/07/12 00:20:28;;;;;;;3.00;1.58;;;;;;;13.42;58.10;99648.84;4347589;33;35853;-80
2022/07/12 00:22:56;;;;;;;3.97;1.77;;;;;;;13.01;59.13;99643.37;4349311;33;34291;-81
2022/07/12 00:25:25;;;;;;;3.53;1.60;;;;;;;12.99;59.61;99645.16;4347774;33;33379;-80
2022/07/12 00:27:53;;;;;;;4.25;1.85;;;;;;;13.27;58.51;99653.44;4349296;33;33664;-91
2022/07/12 00:30:22;;;;;;;2.45;1.60;;;;;;;13.01;59.14;99647.75;4347630;33;35082;-80
2022/07/12 00:32:50;;;;;;;2.10;1.30;;;;;;;13.20;58.89;99648.31;4334741;33;34211;-80
2022/07/12 00:35:18;;;;;;;2.72;1.40;;;;;;;12.94;59.85;99647.00;4346558;33;33432;-80
2022/07/12 00:37:46;;;;;;;3.37;1.60;;;;;;;13.22;58.94;99646.56;4333102;33;35403;-80
2022/07/12 00:40:14;;;;;;;6.85;2.08;;;;;;;12.60;61.08;99649.22;4320647;33;34952;-81
2022/07/12 00:42:42;;;;;;;2.30;1.65;;;;;;;12.45;60.98;99645.94;4347708;33;34494;-88
2022/07/12 00:45:10;;;;;;;3.80;1.60;;;;;;;12.64;61.14;99657.00;4334567;33;34344;-80
2022/07/12 00:47:49;;;;;;;3.25;1.75;;;;;;;13.09;59.37;99652.00;4347928;33;33807;-80
2022/07/12 00:50:20;;;;;;;1.83;1.60;;;;;;;12.01;62.56;99662.16;4334165;33;35793;-80
2022/07/12 00:52:51;;;;;;;6.62;1.95;;;;;;;12.95;60.08;99656.53;4349236;33;34786;-81
2022/07/12 00:55:20;;;;;;;1.87;1.52;;;;;;;12.74;60.90;99654.25;4333088;33;33449;-80
2022/07/12 00:57:49;;;;;;;3.40;1.77;;;;;;;12.50;61.58;99653.72;4335954;33;33914;-80
2022/07/12 01:00:23;;;;;;;2.10;1.60;;;;;;;12.33;61.98;99657.44;4333788;33;34037;-79
2022/07/12 01:02:54;;;;;;;2.83;2.10;;;;;;;11.99;63.67;99654.34;4335877;33;34542;-84
2022/07/12 01:05:23;;;;;;;8.55;2.37;;;;;;;12.50;62.16;99657.19;4332263;33;32616;-89
2022/07/12 01:07:51;;;;;;;4.18;1.90;;;;;;;11.60;64.76;99655.63;4348983;33;34758;-80
2022/07/12 01:10:19;;;;;;;8.60;2.12;;;;;;;12.31;62.81;99655.72;4347164;33;35341;-81
2022/07/12 01:12:47;;;;;;;3.10;1.98;;;;;;;12.38;62.50;99652.13;4335697;33;34639;-80
2022/07/12 01:15:15;;;;;;;4.95;1.92;;;;;;;12.63;61.67;99655.25;4326482;33;33325;-81
2022/07/12 01:17:45;;;;;;;3.78;2.08;;;;;;;12.53;62.00;99653.69;4335742;33;34864;-83
2022/07/12 01:20:19;;;;;;;7.37;2.20;;;;;;;12.62;61.67;99648.34;4333458;33;35027;-81
2022/07/12 01:22:57;;;;;;;5.55;2.08;;;;;;;12.08;63.27;99646.41;4334173;33;34550;-80
2022/07/12 01:25:25;;;;;;;5.68;2.15;;;;;;;11.82;64.41;99641.44;4344752;33;33552;-80
2022/07/12 01:27:53;;;;;;;4.80;2.60;;;;;;;12.29;62.78;99640.06;4319489;33;33967;-81
2022/07/12 01:30:21;;;;;;;7.65;2.20;;;;;;;11.74;64.56;99638.94;4321133;33;35131;-81
2022/07/12 01:32:50;;;;;;;5.80;2.37;;;;;;;12.47;62.51;99640.69;4347335;33;34427;-81
2022/07/12 01:35:19;;;;;;;8.05;2.80;;;;;;;12.40;62.31;99644.28;4347215;33;33444;-80
2022/07/12 01:37:47;;;;;;;5.72;2.33;;;;;;;12.44;61.89;99638.13;4332988;33;33954;-81
2022/07/12 01:40:16;;;;;;;4.82;2.60;;;;;;;12.21;62.97;99644.53;4347531;33;35399;-81
2022/07/12 01:42:44;;;;;;;10.02;3.65;;;;;;;12.52;61.96;99638.88;4306356;33;35077;-81
2022/07/12 01:45:12;;;;;;;7.28;2.80;;;;;;;12.56;61.95;99640.56;4319164;33;33428;-84
2022/07/12 01:47:40;;;;;;;4.82;2.40;;;;;;;12.90;61.00;99640.09;4348118;33;33382;-80
2022/07/12 01:50:10;;;;;;;5.32;2.42;;;;;;;12.58;61.71;99633.56;4348672;33;34636;-80
2022/07/12 01:52:39;;;;;;;6.43;2.78;;;;;;;12.64;61.41;99633.50;4345801;33;34338;-80
2022/07/12 01:55:09;;;;;;;5.20;2.35;;;;;;;11.72;64.68;99634.63;4348594;33;33329;-81
2022/07/12 01:57:41;;;;;;;5.57;2.33;;;;;;;12.26;63.02;99632.25;4347147;33;33107;-81
2022/07/12 02:00:09;;;;;;;6.47;3.33;;;;;;;12.72;61.86;99630.75;4333836;33;35796;-80
2022/07/12 02:02:38;;;;;;;5.85;2.15;;;;;;;12.33;62.89;99627.81;4343185;33;34004;-80
2022/07/12 02:05:06;;;;;;;5.90;2.40;;;;;;;12.23;63.25;99627.09;4335338;33;33638;-81
2022/07/12 02:07:34;;;;;;;4.85;2.45;;;;;;;12.64;62.49;99633.50;4345910;33;34655;-80
2022/07/12 02:10:05;;;;;;;5.28;2.40;;;;;;;12.08;64.20;99627.28;4328477;33;34884;-88
2022/07/12 02:12:34;;;;;;;4.43;1.95;;;;;;;11.91;64.84;99628.34;4345716;33;34735;-80
2022/07/12 02:15:02;;;;;;;5.18;2.00;;;;;;;12.09;64.90;99634.25;4348663;33;33004;-84
2022/07/12 02:17:30;;;;;;;4.05;1.95;;;;;;;12.29;64.08;99629.63;4333737;33;34708;-80
2022/07/12 02:19:58;;;;;;;2.70;1.77;;;;;;;12.70;63.19;99628.16;4348602;33;34867;-80
2022/07/12 02:22:26;;;;;;;10.80;1.70;;;;;;;12.94;62.64;99626.09;4346897;33;34134;-81
2022/07/12 02:24:54;;;;;;;4.75;1.60;;;;;;;13.25;61.32;99630.78;4347117;33;33462;-83
2022/07/12 02:27:22;;;;;;;4.60;2.08;;;;;;;13.34;61.16;99632.41;4346884;33;34754;-82
2022/07/12 02:29:50;;;;;;;2.35;1.30;;;;;;;13.84;59.24;99641.13;4348419;33;35021;-80
2022/07/12 02:32:18;;;;;;;1.40;1.25;;;;;;;13.95;58.92;99643.53;4345184;33;34849;-81
2022/07/12 02:34:46;;;;;;;4.12;1.37;;;;;;;14.05;58.51;99634.59;4348455;33;34158;-80
2022/07/12 02:37:14;;;;;;;3.30;1.77;;;;;;;13.87;59.02;99640.19;4346627;33;34630;-81
2022/07/12 02:39:42;;;;;;;2.17;1.60;;;;;;;14.00;58.63;99633.81;4346791;33;35114;-86
2022/07/12 02:42:10;;;;;;;1.87;1.40;;;;;;;14.15;58.35;99640.50;4321381;33;33683;-81
2022/07/12 02:44:38;;;;;;;2.85;1.60;;;;;;;14.00;58.87;99636.44;4334926;33;34145;-80
2022/07/12 02:47:06;;;;;;;6.03;1.30;;;;;;;14.12;58.68;99638.81;4346784;33;33053;-80
2022/07/12 02:49:34;;;;;;;2.08;1.40;;;;;;;14.10;58.44;99643.22;4348248;33;35179;-91
2022/07/12 02:52:03;;;;;;;3.53;1.20;;;;;;;14.15;58.44;99641.38;4333489;33;35157;-82
2022/07/12 02:54:30;;;;;;;2.87;1.42;;;;;;;14.36;57.62;99640.03;4334872;33;34147;-80
2022/07/12 02:56:58;;;;;;;1.73;1.55;;;;;;;14.46;57.34;99648.56;4345964;33;34641;-80
2022/07/12 02:59:26;;;;;;;2.33;1.35;;;;;;;14.31;57.96;99641.91;4348077;33;35157;-80
2022/07/12 03:01:54;;;;;;;2.78;1.55;;;;;;;14.14;58.17;99647.50;4346276;33;34459;-81
2022/07/12 03:04:22;;;;;;;1.90;1.12;;;;;;;14.26;57.84;99654.25;4348073;33;34119;-89
2022/07/12 03:06:50;;;;;;;2.80;1.40;;;;;;;14.57;57.03;99651.81;4346280;33;34706;-80
2022/07/12 03:09:18;;;;;;;6.03;1.67;;;;;;;14.48;57.27;99662.50;4341132;33;35916;-81
2022/07/12 03:11:46;;;;;;;1.98;1.23;;;;;;;14.19;58.42;99653.50;4344750;33;35139;-81
2022/07/12 03:14:14;;;;;;;2.08;1.60;;;;;;;14.24;58.47;99653.38;4346376;33;33436;-81
2022/07/12 03:16:42;;;;;;;2.00;1.45;;;;;;;14.83;56.76;99660.88;4345336;33;34055;-80
2022/07/12 03:19:10;;;;;;;6.22;1.23;;;;;;;14.05;59.14;99660.78;4346290;33;35067;-81
2022/07/12 03:21:38;;;;;;;2.85;1.20;;;;;;;14.40;58.10;99654.81;4346216;33;34377;-80
2022/07/12 03:24:06;;;;;;;1.12;1.00;;;;;;;14.18;58.93;99657.00;4346368;33;33407;-81
2022/07/12 03:26:34;;;;;;;2.30;1.20;;;;;;;13.84;60.18;99657.66;4342788;33;33819;-84
2022/07/12 03:29:02;;;;;;;3.60;1.50;;;;;;;14.58;58.04;99658.81;4344612;33;35932;-81
2022/07/12 03:31:30;;;;;;;3.03;1.58;;;;;;;14.14;59.43;99665.81;4332805;33;34399;-80
2022/07/12 03:33:58;;;;;;;3.72;1.90;;;;;;;13.83;60.34;99668.16;4347564;33;33459;-80
2022/07/12 03:36:26;;;;;;;2.55;1.33;;;;;;;14.65;57.73;99666.53;4346114;33;33897;-80
2022/07/12 03:38:54;;;;;;;1.40;1.20;;;;;;;14.57;57.94;99664.91;4347544;33;35868;-81
2022/07/12 03:41:22;;;;;;;5.10;1.10;;;;;;;14.99;56.42;99669.25;4345842;33;34421;-88
2022/07/12 03:43:50;;;;;;;2.28;1.50;;;;;;;15.39;55.14;99670.03;4346334;33;33496;-81
2022/07/12 03:46:17;;;;;;;1.70;1.23;;;;;;;15.53;54.97;99674.06;4344476;33;33909;-81
2022/07/12 03:48:46;;;;;;;1.37;1.20;;;;;;;15.97;53.61;99662.41;4347193;33;35081;-81
2022/07/12 03:51:13;;;;;;;1.25;0.90;;;;;;;15.87;53.65;99667.94;4345609;33;35217;-91
2022/07/12 03:53:41;;;;;;;1.35;1.15;;;;;;;16.23;52.54;99667.81;4347199;33;34062;-80
2022/07/12 03:57:13;;;;;;;2.17;1.12;;;;;;;16.92;50.59;99659.63;4332327;33;33836;-80
2022/07/12 03:58:57;;;;;;;2.95;1.75;;;;;;;16.73;51.17;99664.59;4346887;33;35363;-80
2022/07/12 04:01:25;;;;;;;1.20;1.10;;;;;;;17.05;50.33;99671.50;4344013;33;34848;-81
2022/07/12 04:03:55;;;;;;;8.07;1.27;;;;;;;16.93;50.19;99668.41;4347016;33;34242;-92
2022/07/12 04:06:23;;;;;;;1.75;1.00;;;;;;;17.21;50.27;99663.97;4340776;33;33265;-83
2022/07/12 04:08:51;;;;;;;1.40;0.90;;;;;;;17.34;49.65;99668.81;4338131;33;34740;-89
2022/07/12 04:11:19;;;;;;;1.62;1.02;;;;;;;17.64;48.54;99669.56;4322694;33;34329;-80
2022/07/12 04:13:48;;;;;;;4.18;1.25;;;;;;;17.72;48.80;99677.22;4335969;33;33438;-80
2022/07/12 04:16:17;;;;;;;4.20;1.17;;;;;;;17.52;49.16;99675.25;4346176;33;33936;-80
2022/07/12 04:18:45;;;;;;;3.03;1.20;;;;;;;17.73;48.70;99671.00;4335391;33;35075;-80
2022/07/12 04:21:14;;;;;;;2.55;1.10;;;;;;;17.80;48.51;99676.00;4347189;33;34337;-81
2022/07/12 04:23:48;;;;;;;1.25;1.00;;;;;;;17.78;48.16;99679.63;4316095;33;33365;-80
2022/07/12 04:26:16;;;;;;;1.98;1.05;;;;;;;17.84;49.03;99679.38;4321652;33;33498;-80
2022/07/12 04:28:44;;;;;;;3.85;1.30;;;;;;;17.91;48.85;99685.34;4349291;33;35932;-81
2022/07/12 04:31:11;;;;;;;1.08;0.95;;;;;;;17.96;47.76;99681.63;4347129;33;35341;-80
2022/07/12 04:33:40;;;;;;;1.95;1.00;;;;;;;18.52;46.81;99680.44;4349041;33;32746;-80
2022/07/12 04:36:09;;;;;;;1.15;0.93;;;;;;;18.55;46.99;99682.97;4347441;33;34031;-80
2022/07/12 04:38:37;;;;;;;6.87;1.20;;;;;;;18.65;46.24;99682.63;4348987;33;35042;-89
2022/07/12 04:41:05;;;;;;;1.58;1.20;;;;;;;18.21;47.98;99679.88;4347656;33;34748;-89
2022/07/12 04:43:33;;;;;;;1.62;1.00;;;;;;;18.92;45.99;99676.31;4348954;33;33387;-81
2022/07/12 04:46:11;;;;;;;1.65;0.98;;;;;;;19.28;44.94;99674.88;4333536;33;34617;-81
2022/07/12 04:48:39;;;;;;;1.17;1.02;;;;;;;19.25;45.18;99675.00;4345830;33;35759;-88
2022/07/12 04:51:07;;;;;;;5.15;1.17;;;;;;;19.41;44.73;99681.37;4334066;33;34529;-88
2022/07/12 04:53:35;;;;;;;3.03;1.17;;;;;;;19.39;44.64;99680.56;4348965;33;34045;-81
2022/07/12 04:56:03;;;;;;;1.00;0.90;;;;;;;20.10;43.58;99674.06;4348344;33;34083;-84
2022/07/12 04:58:31;;;;;;;1.35;1.10;;;;;;;20.08;43.85;99676.75;4348395;33;35473;-91
2022/07/12 05:01:00;;;;;;;1.98;1.20;;;;;;;20.18;42.67;99688.66;4348650;33;34828;-86
2022/07/12 05:03:30;;;;;;;1.10;0.90;;;;;;;20.14;43.17;99686.22;4344778;33;33356;-89
2022/07/12 05:05:58;;;;;;;2.15;1.10;;;;;;;20.01;42.50;99681.50;4335410;33;34725;-86
2022/07/12 05:08:26;;;;;;;1.92;1.20;;;;;;;20.12;42.99;99685.41;4347198;33;35890;-80
2022/07/12 05:10:54;;;;;;;1.73;1.02;;;;;;;20.15;42.90;99678.19;4348611;33;35067;-89
2022/07/12 05:13:22;;;;;;;6.82;1.40;;;;;;;20.17;43.04;99672.84;4339968;33;33288;-90
2022/07/12 05:15:50;;;;;;;2.65;1.58;;;;;;;20.57;42.17;99679.81;4348803;33;34205;-87
2022/07/12 05:18:18;;;;;;;2.45;1.50;;;;;;;20.26;42.65;99678.59;4347053;33;35066;-81
2022/07/12 05:20:46;;;;;;;1.70;1.10;;;;;;;21.06;41.28;99681.97;4346669;33;34185;-83
2022/07/12 05:23:19;;;;;;;4.75;1.20;;;;;;;21.08;40.73;99681.91;4345953;33;33253;-83
2022/07/12 05:25:47;;;;;;;3.20;0.90;;;;;;;20.83;41.46;99685.72;4348626;33;33972;-86
2022/07/12 05:28:18;;;;;;;7.68;2.62;;;;;;;21.00;41.50;99687.53;4347067;33;35524;-84
2022/07/12 05:30:46;;;;;;;3.15;1.20;;;;;;;21.24;40.55;99696.09;4335735;33;34467;-82
2022/07/12 05:33:14;;;;;;;1.48;1.10;;;;;;;21.15;40.33;99696.56;4347010;33;33795;-83
2022/07/12 05:35:42;;;;;;;2.20;0.93;;;;;;;21.12;40.99;99696.69;4332897;33;34800;-86
2022/07/12 05:38:10;;;;;;;1.58;0.88;;;;;;;21.25;40.67;99687.22;4328922;33;34953;-90
2022/07/12 05:40:38;;;;;;;4.70;1.70;;;;;;;21.42;40.34;99694.31;4328388;33;34900;-90
2022/07/12 05:43:06;;;;;;;2.62;1.40;;;;;;;21.71;39.80;99687.59;4347258;33;34258;-90
2022/07/12 05:45:34;;;;;;;3.40;0.90;;;;;;;22.24;39.21;99691.03;4348949;33;33281;-90
2022/07/12 05:48:02;;;;;;;4.93;1.33;;;;;;;22.05;38.92;99699.09;4346745;33;34905;-90
2022/07/12 05:50:30;;;;;;;2.65;1.50;;;;;;;21.43;40.50;99703.16;4348547;33;34520;-89
2022/07/12 05:55:45;;;;;;;7.95;1.48;;;;;;;22.04;38.64;99697.41;4346082;33;34754;-81
2022/07/12 05:58:13;;;;;;;3.90;1.00;;;;;;;22.32;38.92;99695.94;4346802;33;34393;-91
2022/07/12 06:00:41;;;;;;;2.75;0.98;;;;;;;22.32;38.72;99695.94;4348162;33;34553;-91
2022/07/12 06:03:09;;;;;;;1.40;0.90;;;;;;;23.06;37.95;99694.56;4346812;33;33476;-89
2022/07/12 06:05:37;;;;;;;1.67;1.08;;;;;;;22.90;38.54;99686.56;4348316;33;34831;-83
2022/07/12 06:08:06;;;;;;;3.00;1.20;;;;;;;23.04;38.46;99683.16;4339942;33;35133;-83
2022/07/12 06:10:34;;;;;;;1.90;1.00;;;;;;;23.00;38.70;99686.94;4348473;33;34473;-84
2022/07/12 06:13:02;;;;;;;7.00;1.20;;;;;;;23.18;37.45;99685.91;4333419;33;32762;-85
2022/07/12 06:15:30;;;;;;;2.33;1.25;;;;;;;22.96;38.06;99682.72;4333810;33;33984;-86
2022/07/12 06:18:02;;;;;;;3.03;1.33;;;;;;;22.46;40.11;99679.28;4346464;33;35033;-89
2022/07/12 06:20:30;;;;;;;1.75;1.02;;;;;;;23.28;37.63;99679.13;4348326;33;35206;-83
2022/07/12 06:22:58;;;;;;;7.32;1.73;;;;;;;22.89;38.70;99683.06;4333436;33;33447;-84
2022/07/12 06:25:26;;;;;;;3.58;1.10;;;;;;;23.33;36.93;99680.63;4348317;33;34019;-89
2022/07/12 06:28:12;;;;;;;7.22;1.00;;;;;;;23.48;37.43;99677.09;4346670;33;34980;-89
2022/07/12 06:30:40;;;;;;;1.75;0.90;;;;;;;23.65;36.98;99674.28;4348212;33;34521;-89
2022/07/12 06:33:08;;;;;;;2.60;0.90;;;;;;;22.89;37.95;99680.41;4345473;33;34245;-89
2022/07/12 06:35:36;;;;;;;2.78;0.98;;;;;;;23.66;37.75;99680.47;4346712;33;33797;-81
2022/07/12 06:38:05;;;;;;;1.67;0.80;;;;;;;23.71;36.39;99690.84;4346598;33;35812;-87
2022/07/12 06:40:32;;;;;;;2.33;0.80;;;;;;;24.07;35.74;99678.94;4333475;33;34362;-85
2022/07/12 06:43:00;;;;;;;6.47;1.30;;;;;;;23.82;36.08;99680.44;4333303;33;32858;-85
2022/07/12 06:45:28;;;;;;;1.52;0.77;;;;;;;23.92;35.88;99678.94;4347972;33;34018;-86
2022/07/12 06:47:56;;;;;;;3.28;0.82;;;;;;;23.74;36.05;99688.00;4346183;33;34933;-85
2022/07/12 06:50:24;;;;;;;2.42;1.55;;;;;;;23.51;36.02;99676.91;4347841;33;35130;-82
2022/07/12 06:52:52;;;;;;;2.25;0.80;;;;;;;22.74;38.12;99686.59;4345208;33;33342;-81
2022/07/12 06:55:21;;;;;;;3.12;0.70;;;;;;;23.12;36.75;99683.59;4347852;33;34781;-82
2022/07/12 06:57:49;;;;;;;4.75;1.02;;;;;;;23.41;36.30;99675.75;4345037;33;34279;-86
2022/07/12 07:00:18;;;;;;;4.35;0.80;;;;;;;23.27;36.96;99677.38;4341916;33;34476;-82
2022/07/12 07:02:45;;;;;;;2.10;1.02;;;;;;;23.27;37.45;99685.34;4345218;33;34122;-83
2022/07/12 07:05:15;;;;;;;1.83;0.80;;;;;;;24.81;35.07;99674.34;4348002;33;34765;-82
2022/07/12 07:07:43;;;;;;;5.12;0.90;;;;;;;24.23;35.53;99685.03;4339837;33;34357;-82
2022/07/12 07:10:11;;;;;;;2.80;1.87;;;;;;;25.16;34.59;99691.53;4335393;33;34325;-83
2022/07/12 07:12:39;;;;;;;3.80;1.00;;;;;;;25.46;33.73;99684.31;4340556;33;33761;-85
2022/07/12 07:15:08;;;;;;;4.82;0.90;;;;;;;25.47;33.08;99683.38;4330242;33;34660;-86
2022/07/12 07:17:37;;;;;;;3.33;0.98;;;;;;;25.59;33.57;99681.66;4330832;33;34699;-86
2022/07/12 07:20:06;;;;;;;2.15;0.90;;;;;;;25.94;32.11;99681.09;4332912;33;34552;-85
2022/07/12 07:22:35;;;;;;;2.87;0.98;;;;;;;26.06;32.18;99677.59;4336200;33;34120;-86
2022/07/12 07:25:06;;;;;;;1.12;0.80;;;;;;;25.26;33.49;99685.66;4346049;33;33612;-87
2022/07/12 07:27:34;;;;;;;3.53;0.80;;;;;;;25.31;34.65;99683.53;4330356;33;35871;-85
2022/07/12 07:32:49;;;;;;;2.25;1.00;;;;;;;26.13;33.03;99691.38;4334586;33;33150;-87
2022/07/12 07:35:23;;;;;;;2.62;0.90;;;;;;;25.47;33.57;99676.22;4347474;33;34632;-84
2022/07/12 07:37:52;;;;;;;3.12;1.27;;;;;;;25.49;33.09;99684.12;4343928;33;34945;-85
2022/07/12 07:40:20;;;;;;;2.78;1.10;;;;;;;25.88;32.98;99690.38;4332911;33;34813;-85
2022/07/12 07:42:48;;;;;;;4.62;1.20;;;;;;;25.08;33.34;99683.22;4332270;33;34218;-85
2022/07/12 07:45:17;;;;;;;5.25;1.40;;;;;;;25.21;32.46;99679.75;4349146;33;33951;-84
2022/07/12 07:47:48;;;;;;;2.87;1.00;;;;;;;26.14;32.12;99677.91;4347312;33;34901;-85
2022/07/12 07:50:36;;;;;;;4.78;1.10;;;;;;;26.05;32.60;99689.25;4349302;33;34107;-89
2022/07/12 07:53:04;;;;;;;1.98;1.02;;;;;;;25.99;31.99;99681.66;4347664;33;33506;-85
2022/07/12 07:55:33;;;;;;;5.50;1.12;;;;;;;26.41;32.96;99685.78;4336024;33;33479;-87
2022/07/12 07:58:01;;;;;;;6.03;1.20;;;;;;;26.66;32.34;99684.06;4338635;33;248647;-86
2022/07/12 08:00:29;;;;;;;2.62;1.40;;;;;;;27.78;30.12;99691.78;4347665;33;34251;-85
2022/07/12 08:02:58;;;;;;;2.05;1.20;;;;;;;27.01;31.36;99694.84;4347709;33;33558;-85
2022/07/12 08:05:25;;;;;;;2.50;1.10;;;;;;;27.29;30.52;99687.47;4349261;33;33827;-85
2022/07/12 08:07:56;;;;;;;5.30;1.23;;;;;;;27.42;31.00;99688.28;4347385;33;35557;-84
2022/07/12 08:10:26;;;;;;;3.90;0.95;;;;;;;28.35;29.47;99689.19;4336054;33;34021;-86
2022/07/12 08:12:54;;;;;;;2.60;1.05;;;;;;;28.59;28.32;99682.88;4342657;33;33355;-84
2022/07/12 08:15:22;;;;;;;1.80;1.00;;;;;;;28.79;28.78;99683.97;4346159;33;33814;-83
2022/07/12 08:17:51;;;;;;;2.25;0.88;;;;;;;28.04;28.84;99696.09;4346044;33;35784;-84
2022/07/12 08:20:23;;;;;;;5.90;0.95;;;;;;;27.99;28.83;99696.50;4349141;33;34414;-83
2022/07/12 08:23:11;;;;;;;4.47;1.73;;;;;;;27.14;29.31;99704.63;4336569;33;33409;-83
2022/07/12 08:25:39;;;;;;;6.07;1.10;;;;;;;26.44;30.23;99700.75;4348972;33;33863;-83
2022/07/12 08:28:08;;;;;;;2.50;1.08;;;;;;;26.02;31.46;99705.47;4334140;33;35434;-85
2022/07/12 08:30:36;;;;;;;2.55;1.05;;;;;;;26.36;31.44;99705.75;4332981;33;35218;-85
2022/07/12 08:33:12;;;;;;;;;;;;;;;26.72;31.24;99699.66;4342925;33;33543;-83
2022/07/12 08:35:40;;;;;;;6.35;1.12;;;;;;;27.84;29.21;99703.00;4334356;33;34959;-85
2022/07/12 08:38:09;;;;;;;2.33;0.90;;;;;;;27.70;29.38;99696.00;4347195;33;35004;-84
2022/07/12 08:40:38;;;;;;;1.98;1.20;;;;;;;27.53;29.73;99687.47;4335958;33;34400;-85
2022/07/12 08:43:07;;;;;;;1.27;1.00;;;;;;;28.07;29.57;99691.38;4347421;33;33865;-84
2022/07/12 08:45:34;;;;;;;3.20;1.05;;;;;;;28.45;29.66;99692.84;4348869;33;33673;-83
2022/07/12 08:48:03;;;;;;;4.55;1.00;;;;;;;28.45;28.44;99687.50;4333661;33;33923;-85
2022/07/12 08:50:31;;;;;;;3.92;0.77;;;;;;;28.72;29.57;99683.59;4346472;33;34665;-85
2022/07/12 08:52:59;;;;;;;2.95;1.58;;;;;;;28.14;28.03;99679.19;4346446;33;31407;-82
2022/07/12 08:55:33;;;;;;;4.80;0.88;;;;;;;28.77;27.89;99680.53;4335195;33;33908;-85
2022/07/12 08:58:06;;;;;;;2.72;1.10;;;;;;;27.97;28.72;99677.88;4347042;33;34949;-89
2022/07/12 09:00:34;;;;;;;2.47;0.82;;;;;;;28.93;27.59;99670.28;4335804;33;35182;-87
2022/07/12 09:03:04;;;;;;;3.78;0.90;;;;;;;28.90;27.71;99671.38;4339803;33;33375;-86
2022/07/12 09:05:33;;;;;;;3.50;1.10;;;;;;;29.22;26.44;99673.25;4335445;33;34085;-85
2022/07/12 09:08:10;;;;;;;3.35;1.50;;;;;;;29.58;26.15;99676.50;4341290;33;35330;-84
2022/07/12 09:11:03;;;;;;;2.08;0.90;;;;;;;28.70;27.84;99674.84;4306415;33;35251;-83
2022/07/12 09:13:52;;;;;;;2.75;0.88;;;;;;;29.20;26.03;99685.09;4324025;33;33331;-85
2022/07/12 09:16:22;;;;;;;1.12;0.52;;;;;;;28.41;27.58;99674.47;4331566;33;33425;-85
2022/07/12 09:18:51;;;;;;;2.53;0.80;;;;;;;28.50;26.77;99679.06;4338851;33;35128;-85
2022/07/12 09:21:24;;;;;;;0.60;0.60;;;;;;;29.00;26.59;99676.00;4327614;33;35177;-87
2022/07/12 09:23:57;;;;;;;3.15;1.00;;;;;;;29.23;26.48;99676.78;4346629;33;33615;-87
2022/07/12 09:26:32;;;;;;;1.10;0.80;;;;;;;28.72;26.59;99662.16;4346640;33;33590;-85
2022/07/12 09:29:10;;;;;;;3.45;0.98;;;;;;;28.80;27.76;99653.50;4334204;33;34980;-85
2022/07/12 09:37:21;;;;;;;;;;;;;;;28.73;27.59;99651.31;4347902;33;34565;-85
2022/07/12 09:39:53;;;;;;;1.95;0.80;;;;;;;28.87;26.51;99655.56;4347313;33;34866;-85
2022/07/12 09:42:24;;;;;;;2.15;0.80;;;;;;;29.84;25.56;99657.34;4335909;33;35279;-85
2022/07/12 09:44:57;;;;;;;1.95;0.88;;;;;;;29.55;25.30;99663.34;4335409;33;32838;-85
2022/07/12 09:47:25;;;;;;;0.80;0.80;;;;;;;28.34;26.21;99669.59;4348853;33;34472;-85
2022/07/12 09:49:53;;;;;;;2.03;0.80;;;;;;;29.05;26.15;99661.22;4333790;33;35107;-85
2022/07/12 09:52:24;;;;;;;0.98;0.70;;;;;;;28.49;27.84;99656.81;4347319;33;35078;-85
2022/07/12 09:54:54;;;;;;;3.75;1.12;;;;;;;28.83;26.39;99655.91;4334114;33;33323;-85
2022/07/12 09:57:28;;;;;;;2.78;0.80;;;;;;;29.29;26.44;99655.66;4347220;33;33952;-86
2022/07/12 09:59:57;;;;;;;4.07;0.90;;;;;;;29.83;24.43;99658.34;4332471;33;34929;-86
2022/07/12 10:02:27;;;;;;;3.40;0.77;;;;;;;28.86;26.49;99667.25;4335172;33;35180;-86
2022/07/12 10:04:56;;;;;;;0.85;0.70;;;;;;;28.60;26.28;99652.44;4346986;33;33543;-85
2022/07/12 10:07:24;;;;;;;7.40;0.98;;;;;;;28.76;26.69;99650.22;4348637;33;33452;-85
2022/07/12 10:09:53;;;;;;;5.22;1.20;;;;;;;29.10;25.39;99659.00;4327575;33;35881;-85
2022/07/12 10:12:23;;;;;;;2.22;0.62;;;;;;;28.99;25.31;99655.50;4335318;33;34096;-85
2022/07/12 10:15:14;;;;;;;1.23;0.65;;;;;;;29.56;25.23;99648.09;4345451;33;33528;-86
2022/07/12 10:17:53;;;;;;;4.50;0.73;;;;;;;28.75;25.62;99651.19;4334280;33;33501;-85
2022/07/12 10:20:24;;;;;;;2.00;0.70;;;;;;;27.33;27.13;99653.34;4319202;33;34798;-85
2022/07/12 10:23:16;;;;;;;1.02;0.60;;;;;;;27.14;27.46;99653.81;4319069;33;35192;-85
2022/07/12 10:25:44;;;;;;;2.00;0.70;;;;;;;27.86;26.95;99643.00;4348436;33;34282;-86
2022/07/12 10:28:13;;;;;;;1.62;0.70;;;;;;;27.16;28.24;99639.41;4333657;33;33862;-87
2022/07/12 10:30:43;;;;;;;3.72;0.80;;;;;;;27.46;28.07;99643.44;4322809;33;34224;-86
2022/07/12 10:33:19;;;;;;;2.20;1.00;;;;;;;27.58;27.81;99636.25;4345443;33;35296;-86
2022/07/12 10:36:08;;;;;;;1.52;0.88;;;;;;;27.06;28.51;99635.69;4335176;33;33442;-86
2022/07/12 10:38:42;;;;;;;0.68;0.68;;;;;;;27.59;27.59;99640.66;4346855;33;34362;-85
2022/07/12 10:41:18;;;;;;;4.70;1.15;;;;;;;27.06;27.75;99635.69;4348355;33;35754;-85
2022/07/12 10:44:05;;;;;;;0.98;0.77;;;;;;;26.06;28.84;99633.06;4333710;33;34592;-86
2022/07/12 10:46:34;;;;;;;3.17;0.88;;;;;;;26.55;29.04;99631.38;4335388;33;33226;-85
2022/07/12 10:49:32;;;;;;;2.62;0.80;;;;;;;27.49;27.83;99631.62;4346607;33;33861;-87
2022/07/12 10:52:10;;;;;;;3.17;0.93;;;;;;;25.17;30.12;99645.28;4323338;33;34810;-85
2022/07/12 10:54:39;;;;;;;9.77;1.40;;;;;;;25.91;32.64;99680.31;4346618;33;35144;-84
2022/07/12 10:57:07;;;;;;;11.63;2.40;;;;;;;23.55;44.50;99689.06;4333700;33;33421;-86
2022/07/12 10:59:36;;;;;;;4.95;1.23;;;;;;;22.21;51.89;99701.78;4332923;33;33766;-87
2022/07/12 11:02:05;;;;;;;3.20;1.20;;;;;;;22.46;49.57;99697.84;4334354;33;35898;-86
2022/07/12 11:04:47;;;;;;;3.83;1.83;;;;;;;22.16;51.98;99674.66;4346002;33;34444;-86
2022/07/12 11:07:19;;;;;;;4.20;1.30;;;;;;;22.80;54.47;99675.63;4347670;33;33306;-87
2022/07/12 11:09:52;;;;;;;3.47;1.50;;;;;;;23.40;51.45;99674.00;4320934;33;33554;-87
2022/07/12 11:12:20;;;;;;;2.95;1.30;;;;;;;23.76;51.81;99671.00;4328151;33;34494;-87
2022/07/12 11:14:50;;;;;;;5.47;1.20;;;;;;;24.29;52.85;99673.16;4331716;33;34400;-87
2022/07/12 11:17:24;;;;;;;2.40;1.00;;;;;;;24.93;49.62;99668.22;4347684;33;34211;-87
2022/07/12 11:20:12;;;;;;;2.03;1.05;;;;;;;25.67;49.08;99663.34;4334577;33;34739;-86
2022/07/12 11:22:41;;;;;;;2.00;1.08;;;;;;;26.40;42.17;99645.81;4335061;33;34898;-86
2022/07/12 11:25:12;;;;;;;2.47;1.08;;;;;;;26.00;40.11;99648.69;4333522;33;34393;-87
2022/07/12 11:27:40;;;;;;;1.92;0.80;;;;;;;26.70;41.44;99647.28;4322949;33;32873;-86
2022/07/12 11:30:09;;;;;;;15.60;1.02;;;;;;;27.30;34.48;99629.50;4345559;33;33805;-87
2022/07/12 11:32:43;;;;;;;0.75;0.60;;;;;;;27.10;34.61;99625.63;4349495;33;34882;-87
2022/07/12 11:35:21;;;;;;;3.80;0.80;;;;;;;27.66;36.22;99620.47;4322975;33;35158;-87
2022/07/12 11:37:55;;;;;;;5.40;0.93;;;;;;;27.05;33.06;99624.16;4349692;33;33438;-86
2022/07/12 11:40:28;;;;;;;2.72;0.80;;;;;;;26.74;34.27;99628.25;4333235;33;33787;-86
2022/07/12 11:43:01;;;;;;;2.37;1.05;;;;;;;27.11;33.43;99624.66;4349582;33;34911;-86
2022/07/12 11:45:31;;;;;;;10.63;1.00;;;;;;;27.45;34.26;99619.47;4347869;33;34119;-86
2022/07/12 11:48:01;;;;;;;3.87;2.10;;;;;;;27.88;31.00;99618.81;4336343;33;34417;-86
2022/07/12 11:50:29;;;;;;;7.43;1.08;;;;;;;27.95;30.72;99606.66;4334876;33;33718;-84
2022/07/12 11:53:03;;;;;;;10.07;1.08;;;;;;;27.55;32.00;99612.44;4336105;33;34750;-87
2022/07/12 11:55:31;;;;;;;6.12;0.68;;;;;;;28.39;28.46;99610.28;4334618;33;34330;-86
2022/07/12 11:58:06;;;;;;;1.02;0.50;;;;;;;28.24;27.15;99608.88;4349568;33;33439;-86